sensor_id;sensor_type;location;lat;lon;timestamp;P1;durP1;ratioP1;P2;durP2;ratioP2
17510;SDS011;8873;48.818;9.422;2023-11-21T00:00:56;10.55;;;3.30;;
17510;SDS011;8873;48.818;9.422;2023-11-21T00:03:24;6.07;;;3.10;;
17510;SDS011;8873;48.818;9.422;2023-11-21T00:05:54;4.15;;;2.55;;
17510;SDS011;8873;48.818;9.422;2023-11-21T00:08:22;5.07;;;2.78;;
17510;SDS011;8873;48.818;9.422;2023-11-21T00:10:50;6.70;;;2.72;;
17510;SDS011;8873;48.818;9.422;2023-11-21T00:13:18;7.63;;;2.42;;
17510;SDS011;8873;48.818;9.422;2023-11-21T00:15:47;11.93;;;2.95;;
17510;SDS011;8873;48.818;9.422;2023-11-21T00:18:15;6.60;;;2.80;;
17510;SDS011;8873;48.818;9.422;2023-11-21T00:20:43;12.45;;;2.97;;
17510;SDS011;8873;48.818;9.422;2023-11-21T00:23:11;11.10;;;3.65;;
17510;SDS011;8873;48.818;9.422;2023-11-21T00:25:39;5.68;;;2.55;;
17510;SDS011;8873;48.818;9.422;2023-11-21T00:28:07;7.45;;;3.00;;
17510;SDS011;8873;48.818;9.422;2023-11-21T00:30:34;6.07;;;2.80;;
17510;SDS011;8873;48.818;9.422;2023-11-21T00:33:04;7.82;;;2.80;;
17510;SDS011;8873;48.818;9.422;2023-11-21T00:35:32;6.70;;;2.75;;
17510;SDS011;8873;48.818;9.422;2023-11-21T00:37:59;7.82;;;2.78;;
17510;SDS011;8873;48.818;9.422;2023-11-21T00:40:28;14.63;;;3.47;;
17510;SDS011;8873;48.818;9.422;2023-11-21T00:43:02;7.32;;;2.88;;
17510;SDS011;8873;48.818;9.422;2023-11-21T00:45:32;9.10;;;3.13;;
17510;SDS011;8873;48.818;9.422;2023-11-21T00:47:59;10.55;;;3.67;;
17510;SDS011;8873;48.818;9.422;2023-11-21T00:50:29;6.78;;;2.83;;
17510;SDS011;8873;48.818;9.422;2023-11-21T00:52:57;9.60;;;3.47;;
17510;SDS011;8873;48.818;9.422;2023-11-21T00:55:25;4.32;;;2.83;;
17510;SDS011;8873;48.818;9.422;2023-11-21T00:57:54;10.38;;;2.60;;
17510;SDS011;8873;48.818;9.422;2023-11-21T01:00:22;9.93;;;3.17;;
17510;SDS011;8873;48.818;9.422;2023-11-21T01:02:50;5.50;;;3.00;;
17510;SDS011;8873;48.818;9.422;2023-11-21T01:05:22;6.85;;;3.63;;
17510;SDS011;8873;48.818;9.422;2023-11-21T01:07:51;4.63;;;2.90;;
17510;SDS011;8873;48.818;9.422;2023-11-21T01:10:19;13.13;;;3.30;;
17510;SDS011;8873;48.818;9.422;2023-11-21T01:12:47;6.53;;;2.67;;
17510;SDS011;8873;48.818;9.422;2023-11-21T01:15:15;7.00;;;2.83;;
17510;SDS011;8873;48.818;9.422;2023-11-21T01:17:43;8.00;;;3.03;;
17510;SDS011;8873;48.818;9.422;2023-11-21T01:20:11;6.78;;;2.50;;
17510;SDS011;8873;48.818;9.422;2023-11-21T01:22:40;14.10;;;3.33;;
17510;SDS011;8873;48.818;9.422;2023-11-21T01:25:09;7.40;;;3.03;;
17510;SDS011;8873;48.818;9.422;2023-11-21T01:27:37;5.93;;;2.50;;
17510;SDS011;8873;48.818;9.422;2023-11-21T01:30:06;6.47;;;2.63;;
17510;SDS011;8873;48.818;9.422;2023-11-21T01:32:38;8.40;;;2.88;;
17510;SDS011;8873;48.818;9.422;2023-11-21T01:35:06;6.75;;;2.60;;
17510;SDS011;8873;48.818;9.422;2023-11-21T01:37:36;8.48;;;2.90;;
17510;SDS011;8873;48.818;9.422;2023-11-21T01:40:04;7.15;;;2.83;;
17510;SDS011;8873;48.818;9.422;2023-11-21T01:42:39;7.68;;;2.53;;
17510;SDS011;8873;48.818;9.422;2023-11-21T01:45:07;4.40;;;2.67;;
17510;SDS011;8873;48.818;9.422;2023-11-21T01:47:36;7.32;;;2.58;;
17510;SDS011;8873;48.818;9.422;2023-11-21T01:50:04;3.92;;;2.20;;
17510;SDS011;8873;48.818;9.422;2023-11-21T01:52:33;7.18;;;2.50;;
17510;SDS011;8873;48.818;9.422;2023-11-21T01:55:02;7.20;;;2.78;;
17510;SDS011;8873;48.818;9.422;2023-11-21T01:57:31;1.95;;;1.83;;
17510;SDS011;8873;48.818;9.422;2023-11-21T02:00:00;4.38;;;2.25;;
17510;SDS011;8873;48.818;9.422;2023-11-21T02:02:42;9.88;;;2.45;;
17510;SDS011;8873;48.818;9.422;2023-11-21T02:05:10;4.72;;;2.00;;
17510;SDS011;8873;48.818;9.422;2023-11-21T02:07:38;2.15;;;1.90;;
17510;SDS011;8873;48.818;9.422;2023-11-21T02:10:06;3.30;;;2.28;;
17510;SDS011;8873;48.818;9.422;2023-11-21T02:12:35;8.95;;;2.08;;
17510;SDS011;8873;48.818;9.422;2023-11-21T02:15:06;7.13;;;1.95;;
17510;SDS011;8873;48.818;9.422;2023-11-21T02:17:41;3.60;;;2.20;;
17510;SDS011;8873;48.818;9.422;2023-11-21T02:20:10;2.22;;;1.77;;
17510;SDS011;8873;48.818;9.422;2023-11-21T02:22:43;3.17;;;2.08;;
17510;SDS011;8873;48.818;9.422;2023-11-21T02:25:12;2.47;;;2.15;;
17510;SDS011;8873;48.818;9.422;2023-11-21T02:27:40;1.90;;;1.80;;
17510;SDS011;8873;48.818;9.422;2023-11-21T02:30:09;4.35;;;1.88;;
17510;SDS011;8873;48.818;9.422;2023-11-21T02:32:40;6.45;;;2.38;;
17510;SDS011;8873;48.818;9.422;2023-11-21T02:35:15;8.02;;;2.17;;
17510;SDS011;8873;48.818;9.422;2023-11-21T02:37:43;3.13;;;1.80;;
17510;SDS011;8873;48.818;9.422;2023-11-21T02:40:13;3.67;;;1.95;;
17510;SDS011;8873;48.818;9.422;2023-11-21T02:42:44;3.22;;;1.83;;
17510;SDS011;8873;48.818;9.422;2023-11-21T02:45:12;5.95;;;1.95;;
17510;SDS011;8873;48.818;9.422;2023-11-21T02:47:43;1.85;;;1.70;;
17510;SDS011;8873;48.818;9.422;2023-11-21T02:50:11;4.68;;;1.75;;
17510;SDS011;8873;48.818;9.422;2023-11-21T02:52:39;4.03;;;1.95;;
17510;SDS011;8873;48.818;9.422;2023-11-21T02:55:07;4.93;;;2.10;;
17510;SDS011;8873;48.818;9.422;2023-11-21T02:57:36;5.05;;;1.85;;
17510;SDS011;8873;48.818;9.422;2023-11-21T03:00:05;3.95;;;1.80;;
17510;SDS011;8873;48.818;9.422;2023-11-21T03:02:34;6.20;;;1.83;;
17510;SDS011;8873;48.818;9.422;2023-11-21T03:05:03;6.10;;;1.85;;
17510;SDS011;8873;48.818;9.422;2023-11-21T03:07:31;2.83;;;1.70;;
17510;SDS011;8873;48.818;9.422;2023-11-21T03:09:59;3.42;;;1.80;;
17510;SDS011;8873;48.818;9.422;2023-11-21T03:12:27;3.92;;;1.80;;
17510;SDS011;8873;48.818;9.422;2023-11-21T03:14:56;2.50;;;1.70;;
17510;SDS011;8873;48.818;9.422;2023-11-21T03:17:23;6.18;;;2.20;;
17510;SDS011;8873;48.818;9.422;2023-11-21T03:19:51;2.40;;;2.00;;
17510;SDS011;8873;48.818;9.422;2023-11-21T03:22:19;2.92;;;1.92;;
17510;SDS011;8873;48.818;9.422;2023-11-21T03:24:47;5.20;;;1.67;;
17510;SDS011;8873;48.818;9.422;2023-11-21T03:27:15;1.88;;;1.70;;
17510;SDS011;8873;48.818;9.422;2023-11-21T03:29:45;3.67;;;1.50;;
17510;SDS011;8873;48.818;9.422;2023-11-21T03:32:14;4.07;;;1.80;;
17510;SDS011;8873;48.818;9.422;2023-11-21T03:34:52;2.92;;;1.60;;
17510;SDS011;8873;48.818;9.422;2023-11-21T03:37:20;1.98;;;1.80;;
17510;SDS011;8873;48.818;9.422;2023-11-21T03:39:48;2.58;;;1.70;;
17510;SDS011;8873;48.818;9.422;2023-11-21T03:42:16;1.92;;;1.83;;
17510;SDS011;8873;48.818;9.422;2023-11-21T03:44:44;4.22;;;1.75;;
17510;SDS011;8873;48.818;9.422;2023-11-21T03:47:12;1.85;;;1.60;;
17510;SDS011;8873;48.818;9.422;2023-11-21T03:49:41;2.42;;;1.60;;
17510;SDS011;8873;48.818;9.422;2023-11-21T03:52:08;1.70;;;1.60;;
17510;SDS011;8873;48.818;9.422;2023-11-21T03:54:38;3.70;;;1.90;;
17510;SDS011;8873;48.818;9.422;2023-11-21T03:57:07;1.80;;;1.70;;
17510;SDS011;8873;48.818;9.422;2023-11-21T03:59:35;4.35;;;1.95;;
17510;SDS011;8873;48.818;9.422;2023-11-21T04:02:03;6.43;;;1.90;;
17510;SDS011;8873;48.818;9.422;2023-11-21T04:04:31;2.50;;;1.80;;
17510;SDS011;8873;48.818;9.422;2023-11-21T04:07:00;2.50;;;2.30;;
17510;SDS011;8873;48.818;9.422;2023-11-21T04:09:28;1.95;;;1.73;;
17510;SDS011;8873;48.818;9.422;2023-11-21T04:11:55;2.97;;;2.30;;
17510;SDS011;8873;48.818;9.422;2023-11-21T04:14:23;1.83;;;1.60;;
17510;SDS011;8873;48.818;9.422;2023-11-21T04:16:51;2.75;;;1.65;;
17510;SDS011;8873;48.818;9.422;2023-11-21T04:19:20;2.22;;;2.05;;
17510;SDS011;8873;48.818;9.422;2023-11-21T04:21:48;2.03;;;1.58;;
17510;SDS011;8873;48.818;9.422;2023-11-21T04:24:17;3.17;;;1.73;;
17510;SDS011;8873;48.818;9.422;2023-11-21T04:26:45;2.38;;;2.13;;
17510;SDS011;8873;48.818;9.422;2023-11-21T04:29:12;2.20;;;2.00;;
17510;SDS011;8873;48.818;9.422;2023-11-21T04:31:40;2.92;;;1.80;;
17510;SDS011;8873;48.818;9.422;2023-11-21T04:34:08;2.22;;;2.03;;
17510;SDS011;8873;48.818;9.422;2023-11-21T04:36:36;2.67;;;1.55;;
17510;SDS011;8873;48.818;9.422;2023-11-21T04:39:03;5.38;;;1.50;;
17510;SDS011;8873;48.818;9.422;2023-11-21T04:41:34;3.88;;;1.70;;
17510;SDS011;8873;48.818;9.422;2023-11-21T04:44:05;2.17;;;1.75;;
17510;SDS011;8873;48.818;9.422;2023-11-21T04:46:33;3.55;;;1.80;;
17510;SDS011;8873;48.818;9.422;2023-11-21T04:49:01;4.53;;;2.13;;
17510;SDS011;8873;48.818;9.422;2023-11-21T04:51:29;2.85;;;1.83;;
17510;SDS011;8873;48.818;9.422;2023-11-21T04:53:58;6.53;;;2.30;;
17510;SDS011;8873;48.818;9.422;2023-11-21T04:56:26;2.13;;;2.03;;
17510;SDS011;8873;48.818;9.422;2023-11-21T04:58:55;3.67;;;2.10;;
17510;SDS011;8873;48.818;9.422;2023-11-21T05:01:22;2.80;;;2.13;;
17510;SDS011;8873;48.818;9.422;2023-11-21T05:03:50;4.82;;;2.08;;
17510;SDS011;8873;48.818;9.422;2023-11-21T05:06:19;6.28;;;1.90;;
17510;SDS011;8873;48.818;9.422;2023-11-21T05:08:47;4.10;;;1.80;;
17510;SDS011;8873;48.818;9.422;2023-11-21T05:11:25;4.18;;;2.60;;
17510;SDS011;8873;48.818;9.422;2023-11-21T05:13:54;3.88;;;2.63;;
17510;SDS011;8873;48.818;9.422;2023-11-21T05:16:30;7.00;;;3.10;;
17510;SDS011;8873;48.818;9.422;2023-11-21T05:18:57;3.15;;;2.00;;
17510;SDS011;8873;48.818;9.422;2023-11-21T05:21:27;4.90;;;1.98;;
17510;SDS011;8873;48.818;9.422;2023-11-21T05:23:57;8.82;;;2.97;;
17510;SDS011;8873;48.818;9.422;2023-11-21T05:26:25;8.50;;;3.90;;
17510;SDS011;8873;48.818;9.422;2023-11-21T05:28:52;4.82;;;2.92;;
17510;SDS011;8873;48.818;9.422;2023-11-21T05:31:26;2.92;;;2.53;;
17510;SDS011;8873;48.818;9.422;2023-11-21T05:34:00;4.78;;;2.90;;
17510;SDS011;8873;48.818;9.422;2023-11-21T05:36:28;3.78;;;2.70;;
17510;SDS011;8873;48.818;9.422;2023-11-21T05:38:55;6.32;;;2.22;;
17510;SDS011;8873;48.818;9.422;2023-11-21T05:41:26;4.65;;;2.33;;
17510;SDS011;8873;48.818;9.422;2023-11-21T05:43:53;4.25;;;1.88;;
17510;SDS011;8873;48.818;9.422;2023-11-21T05:46:27;2.72;;;2.53;;
17510;SDS011;8873;48.818;9.422;2023-11-21T05:48:54;9.15;;;4.38;;
17510;SDS011;8873;48.818;9.422;2023-11-21T05:51:23;15.77;;;7.38;;
17510;SDS011;8873;48.818;9.422;2023-11-21T05:53:51;10.02;;;6.10;;
17510;SDS011;8873;48.818;9.422;2023-11-21T05:56:20;10.05;;;5.78;;
17510;SDS011;8873;48.818;9.422;2023-11-21T05:58:48;10.50;;;5.20;;
17510;SDS011;8873;48.818;9.422;2023-11-21T06:01:16;7.18;;;4.60;;
17510;SDS011;8873;48.818;9.422;2023-11-21T06:03:46;7.40;;;3.28;;
17510;SDS011;8873;48.818;9.422;2023-11-21T06:06:14;4.95;;;2.67;;
17510;SDS011;8873;48.818;9.422;2023-11-21T06:08:42;3.88;;;1.80;;
17510;SDS011;8873;48.818;9.422;2023-11-21T06:11:10;2.22;;;2.03;;
17510;SDS011;8873;48.818;9.422;2023-11-21T06:13:38;2.72;;;1.60;;
17510;SDS011;8873;48.818;9.422;2023-11-21T06:16:09;3.83;;;2.30;;
17510;SDS011;8873;48.818;9.422;2023-11-21T06:18:47;2.00;;;1.90;;
17510;SDS011;8873;48.818;9.422;2023-11-21T06:21:16;2.92;;;2.72;;
17510;SDS011;8873;48.818;9.422;2023-11-21T06:23:45;5.53;;;2.70;;
17510;SDS011;8873;48.818;9.422;2023-11-21T06:26:19;5.22;;;2.22;;
17510;SDS011;8873;48.818;9.422;2023-11-21T06:28:46;2.38;;;2.20;;
17510;SDS011;8873;48.818;9.422;2023-11-21T06:31:17;2.78;;;1.90;;
17510;SDS011;8873;48.818;9.422;2023-11-21T06:33:45;2.50;;;2.25;;
17510;SDS011;8873;48.818;9.422;2023-11-21T06:36:18;2.92;;;2.00;;
17510;SDS011;8873;48.818;9.422;2023-11-21T06:39:04;1.80;;;1.70;;
17510;SDS011;8873;48.818;9.422;2023-11-21T06:41:35;5.95;;;1.52;;
17510;SDS011;8873;48.818;9.422;2023-11-21T06:44:05;2.63;;;1.80;;
17510;SDS011;8873;48.818;9.422;2023-11-21T06:46:35;1.85;;;1.70;;
17510;SDS011;8873;48.818;9.422;2023-11-21T06:49:03;11.43;;;6.90;;
17510;SDS011;8873;48.818;9.422;2023-11-21T06:51:34;7.22;;;4.78;;
17510;SDS011;8873;48.818;9.422;2023-11-21T06:54:02;9.30;;;5.57;;
17510;SDS011;8873;48.818;9.422;2023-11-21T06:56:31;10.00;;;6.10;;
17510;SDS011;8873;48.818;9.422;2023-11-21T06:58:59;6.10;;;5.07;;
17510;SDS011;8873;48.818;9.422;2023-11-21T07:01:26;8.13;;;4.70;;
17510;SDS011;8873;48.818;9.422;2023-11-21T07:03:54;8.68;;;4.32;;
17510;SDS011;8873;48.818;9.422;2023-11-21T07:06:22;8.73;;;5.00;;
17510;SDS011;8873;48.818;9.422;2023-11-21T07:08:54;5.47;;;4.20;;
17510;SDS011;8873;48.818;9.422;2023-11-21T07:11:28;6.20;;;3.90;;
17510;SDS011;8873;48.818;9.422;2023-11-21T07:14:00;4.90;;;3.40;;
17510;SDS011;8873;48.818;9.422;2023-11-21T07:16:33;3.25;;;2.92;;
17510;SDS011;8873;48.818;9.422;2023-11-21T07:19:01;3.00;;;2.70;;
17510;SDS011;8873;48.818;9.422;2023-11-21T07:21:32;3.92;;;3.63;;
17510;SDS011;8873;48.818;9.422;2023-11-21T07:24:05;4.70;;;3.92;;
17510;SDS011;8873;48.818;9.422;2023-11-21T07:26:34;7.00;;;4.50;;
17510;SDS011;8873;48.818;9.422;2023-11-21T07:29:02;13.63;;;5.90;;
17510;SDS011;8873;48.818;9.422;2023-11-21T07:31:32;10.15;;;6.03;;
17510;SDS011;8873;48.818;9.422;2023-11-21T07:34:08;15.77;;;6.10;;
17510;SDS011;8873;48.818;9.422;2023-11-21T07:36:42;12.65;;;7.15;;
17510;SDS011;8873;48.818;9.422;2023-11-21T07:39:11;13.90;;;6.68;;
17510;SDS011;8873;48.818;9.422;2023-11-21T07:41:41;13.93;;;6.50;;
17510;SDS011;8873;48.818;9.422;2023-11-21T07:44:15;15.18;;;8.15;;
17510;SDS011;8873;48.818;9.422;2023-11-21T07:46:44;12.75;;;8.00;;
17510;SDS011;8873;48.818;9.422;2023-11-21T07:49:14;11.70;;;5.53;;
17510;SDS011;8873;48.818;9.422;2023-11-21T07:51:43;7.13;;;4.13;;
17510;SDS011;8873;48.818;9.422;2023-11-21T07:54:14;7.22;;;3.50;;
17510;SDS011;8873;48.818;9.422;2023-11-21T07:56:42;3.97;;;3.05;;
17510;SDS011;8873;48.818;9.422;2023-11-21T07:59:11;3.58;;;2.33;;
17510;SDS011;8873;48.818;9.422;2023-11-21T08:01:40;2.42;;;2.30;;
17510;SDS011;8873;48.818;9.422;2023-11-21T08:04:17;3.00;;;2.70;;
17510;SDS011;8873;48.818;9.422;2023-11-21T08:06:45;3.08;;;2.80;;
17510;SDS011;8873;48.818;9.422;2023-11-21T08:09:14;3.42;;;2.70;;
17510;SDS011;8873;48.818;9.422;2023-11-21T08:11:43;5.40;;;2.67;;
17510;SDS011;8873;48.818;9.422;2023-11-21T08:14:13;5.32;;;2.53;;
17510;SDS011;8873;48.818;9.422;2023-11-21T08:16:41;2.90;;;2.50;;
17510;SDS011;8873;48.818;9.422;2023-11-21T08:19:09;4.93;;;2.50;;
17510;SDS011;8873;48.818;9.422;2023-11-21T08:21:39;4.80;;;3.17;;
17510;SDS011;8873;48.818;9.422;2023-11-21T08:24:07;4.20;;;2.78;;
17510;SDS011;8873;48.818;9.422;2023-11-21T08:26:41;2.67;;;2.47;;
17510;SDS011;8873;48.818;9.422;2023-11-21T08:29:09;2.35;;;2.15;;
17510;SDS011;8873;48.818;9.422;2023-11-21T08:31:38;2.40;;;2.20;;
17510;SDS011;8873;48.818;9.422;2023-11-21T08:34:08;6.75;;;2.65;;
17510;SDS011;8873;48.818;9.422;2023-11-21T08:36:35;4.80;;;2.50;;
17510;SDS011;8873;48.818;9.422;2023-11-21T08:39:03;3.40;;;2.75;;
17510;SDS011;8873;48.818;9.422;2023-11-21T08:41:31;5.75;;;2.60;;
17510;SDS011;8873;48.818;9.422;2023-11-21T08:44:05;4.68;;;2.10;;
17510;SDS011;8873;48.818;9.422;2023-11-21T08:46:34;5.13;;;2.28;;
17510;SDS011;8873;48.818;9.422;2023-11-21T08:49:04;3.75;;;1.90;;
17510;SDS011;8873;48.818;9.422;2023-11-21T08:51:32;2.25;;;2.15;;
17510;SDS011;8873;48.818;9.422;2023-11-21T08:54:00;4.07;;;3.28;;
17510;SDS011;8873;48.818;9.422;2023-11-21T08:56:30;4.18;;;2.70;;
17510;SDS011;8873;48.818;9.422;2023-11-21T08:58:58;6.13;;;2.90;;
17510;SDS011;8873;48.818;9.422;2023-11-21T09:01:30;5.57;;;2.38;;
17510;SDS011;8873;48.818;9.422;2023-11-21T09:03:59;3.90;;;2.90;;
17510;SDS011;8873;48.818;9.422;2023-11-21T09:06:27;5.18;;;3.88;;
17510;SDS011;8873;48.818;9.422;2023-11-21T09:08:54;8.38;;;3.60;;
17510;SDS011;8873;48.818;9.422;2023-11-21T09:11:22;3.80;;;3.10;;
17510;SDS011;8873;48.818;9.422;2023-11-21T09:13:51;2.67;;;2.08;;
17510;SDS011;8873;48.818;9.422;2023-11-21T09:16:19;4.03;;;2.35;;
17510;SDS011;8873;48.818;9.422;2023-11-21T09:18:55;2.90;;;2.30;;
17510;SDS011;8873;48.818;9.422;2023-11-21T09:21:28;3.40;;;3.10;;
17510;SDS011;8873;48.818;9.422;2023-11-21T09:23:55;3.28;;;2.97;;
17510;SDS011;8873;48.818;9.422;2023-11-21T09:26:24;4.25;;;2.33;;
17510;SDS011;8873;48.818;9.422;2023-11-21T09:28:52;4.47;;;2.70;;
17510;SDS011;8873;48.818;9.422;2023-11-21T09:31:23;4.82;;;2.78;;
17510;SDS011;8873;48.818;9.422;2023-11-21T09:33:51;4.82;;;3.20;;
17510;SDS011;8873;48.818;9.422;2023-11-21T09:36:20;3.80;;;2.40;;
17510;SDS011;8873;48.818;9.422;2023-11-21T09:38:53;2.85;;;2.65;;
17510;SDS011;8873;48.818;9.422;2023-11-21T09:41:26;2.90;;;2.70;;
17510;SDS011;8873;48.818;9.422;2023-11-21T09:44:04;2.78;;;2.50;;
17510;SDS011;8873;48.818;9.422;2023-11-21T09:46:40;3.92;;;2.65;;
17510;SDS011;8873;48.818;9.422;2023-11-21T09:49:10;3.13;;;2.83;;
17510;SDS011;8873;48.818;9.422;2023-11-21T09:51:42;4.90;;;2.60;;
17510;SDS011;8873;48.818;9.422;2023-11-21T09:54:10;2.65;;;2.45;;
17510;SDS011;8873;48.818;9.422;2023-11-21T09:56:38;4.28;;;2.65;;
17510;SDS011;8873;48.818;9.422;2023-11-21T09:59:06;3.78;;;2.90;;
17510;SDS011;8873;48.818;9.422;2023-11-21T10:01:36;2.53;;;2.33;;
17510;SDS011;8873;48.818;9.422;2023-11-21T10:04:05;6.13;;;2.42;;
17510;SDS011;8873;48.818;9.422;2023-11-21T10:06:39;3.25;;;2.92;;
17510;SDS011;8873;48.818;9.422;2023-11-21T10:09:09;2.75;;;2.60;;
17510;SDS011;8873;48.818;9.422;2023-11-21T10:11:40;4.38;;;2.30;;
17510;SDS011;8873;48.818;9.422;2023-11-21T10:14:18;4.50;;;2.97;;
17510;SDS011;8873;48.818;9.422;2023-11-21T10:16:52;2.17;;;1.98;;
17510;SDS011;8873;48.818;9.422;2023-11-21T10:19:32;3.63;;;2.00;;
17510;SDS011;8873;48.818;9.422;2023-11-21T10:22:09;1.73;;;1.63;;
17510;SDS011;8873;48.818;9.422;2023-11-21T10:24:42;2.25;;;2.05;;
17510;SDS011;8873;48.818;9.422;2023-11-21T10:27:19;2.97;;;2.67;;
17510;SDS011;8873;48.818;9.422;2023-11-21T10:29:51;3.88;;;2.42;;
17510;SDS011;8873;48.818;9.422;2023-11-21T10:32:18;2.72;;;2.53;;
17510;SDS011;8873;48.818;9.422;2023-11-21T10:34:55;2.42;;;2.25;;
17510;SDS011;8873;48.818;9.422;2023-11-21T10:37:23;2.22;;;1.98;;
17510;SDS011;8873;48.818;9.422;2023-11-21T10:40:04;2.22;;;1.83;;
17510;SDS011;8873;48.818;9.422;2023-11-21T10:42:39;2.05;;;1.95;;
17510;SDS011;8873;48.818;9.422;2023-11-21T10:45:07;4.32;;;3.55;;
17510;SDS011;8873;48.818;9.422;2023-11-21T10:47:42;2.22;;;2.13;;
17510;SDS011;8873;48.818;9.422;2023-11-21T10:50:19;2.83;;;1.98;;
17510;SDS011;8873;48.818;9.422;2023-11-21T10:52:53;2.97;;;2.28;;
17510;SDS011;8873;48.818;9.422;2023-11-21T10:55:28;2.25;;;1.90;;
17510;SDS011;8873;48.818;9.422;2023-11-21T10:57:58;32.55;;;5.10;;
17510;SDS011;8873;48.818;9.422;2023-11-21T11:00:28;6.43;;;2.63;;
17510;SDS011;8873;48.818;9.422;2023-11-21T11:02:56;8.80;;;4.35;;
17510;SDS011;8873;48.818;9.422;2023-11-21T11:05:27;11.45;;;7.15;;
17510;SDS011;8873;48.818;9.422;2023-11-21T11:08:08;3.83;;;3.42;;
17510;SDS011;8873;48.818;9.422;2023-11-21T11:10:51;4.75;;;2.47;;
17510;SDS011;8873;48.818;9.422;2023-11-21T11:13:22;2.50;;;2.28;;
17510;SDS011;8873;48.818;9.422;2023-11-21T11:15:53;3.65;;;2.30;;
17510;SDS011;8873;48.818;9.422;2023-11-21T11:18:26;2.20;;;2.10;;
17510;SDS011;8873;48.818;9.422;2023-11-21T11:21:00;4.82;;;1.85;;
17510;SDS011;8873;48.818;9.422;2023-11-21T11:23:39;2.05;;;1.85;;
17510;SDS011;8873;48.818;9.422;2023-11-21T11:26:16;19.15;;;3.05;;
17510;SDS011;8873;48.818;9.422;2023-11-21T11:28:51;2.30;;;1.98;;
17510;SDS011;8873;48.818;9.422;2023-11-21T11:31:26;2.08;;;1.88;;
17510;SDS011;8873;48.818;9.422;2023-11-21T11:33:57;3.03;;;2.05;;
17510;SDS011;8873;48.818;9.422;2023-11-21T11:36:39;7.68;;;4.18;;
17510;SDS011;8873;48.818;9.422;2023-11-21T11:39:26;3.50;;;2.28;;
17510;SDS011;8873;48.818;9.422;2023-11-21T11:42:01;1.70;;;1.60;;
17510;SDS011;8873;48.818;9.422;2023-11-21T11:44:51;1.60;;;1.40;;
17510;SDS011;8873;48.818;9.422;2023-11-21T11:47:23;2.22;;;2.05;;
17510;SDS011;8873;48.818;9.422;2023-11-21T11:52:42;2.35;;;1.30;;
17510;SDS011;8873;48.818;9.422;2023-11-21T11:55:12;2.45;;;2.35;;
17510;SDS011;8873;48.818;9.422;2023-11-21T11:57:55;1.45;;;1.45;;
17510;SDS011;8873;48.818;9.422;2023-11-21T12:00:33;2.10;;;1.90;;
17510;SDS011;8873;48.818;9.422;2023-11-21T12:03:04;2.00;;;1.90;;
17510;SDS011;8873;48.818;9.422;2023-11-21T12:05:34;2.08;;;1.98;;
17510;SDS011;8873;48.818;9.422;2023-11-21T12:08:20;2.03;;;1.92;;
17510;SDS011;8873;48.818;9.422;2023-11-21T12:10:48;4.22;;;3.95;;
17510;SDS011;8873;48.818;9.422;2023-11-21T12:13:17;3.35;;;3.15;;
17510;SDS011;8873;48.818;9.422;2023-11-21T12:15:52;2.08;;;1.98;;
17510;SDS011;8873;48.818;9.422;2023-11-21T12:18:22;5.22;;;4.75;;
17510;SDS011;8873;48.818;9.422;2023-11-21T12:20:52;6.20;;;5.38;;
17510;SDS011;8873;48.818;9.422;2023-11-21T12:23:21;4.57;;;4.18;;
17510;SDS011;8873;48.818;9.422;2023-11-21T12:25:54;3.20;;;3.00;;
17510;SDS011;8873;48.818;9.422;2023-11-21T12:28:25;3.15;;;2.85;;
17510;SDS011;8873;48.818;9.422;2023-11-21T12:31:10;4.15;;;3.42;;
17510;SDS011;8873;48.818;9.422;2023-11-21T12:33:50;3.28;;;3.03;;
17510;SDS011;8873;48.818;9.422;2023-11-21T12:36:23;3.88;;;3.50;;
17510;SDS011;8873;48.818;9.422;2023-11-21T12:38:57;3.60;;;3.30;;
17510;SDS011;8873;48.818;9.422;2023-11-21T12:41:29;4.03;;;2.80;;
17510;SDS011;8873;48.818;9.422;2023-11-21T12:43:59;3.90;;;3.10;;
17510;SDS011;8873;48.818;9.422;2023-11-21T12:46:27;4.10;;;3.30;;
17510;SDS011;8873;48.818;9.422;2023-11-21T12:48:59;3.95;;;3.00;;
17510;SDS011;8873;48.818;9.422;2023-11-21T12:51:33;3.20;;;2.90;;
17510;SDS011;8873;48.818;9.422;2023-11-21T12:54:01;2.58;;;2.38;;
17510;SDS011;8873;48.818;9.422;2023-11-21T12:56:31;2.47;;;2.20;;
17510;SDS011;8873;48.818;9.422;2023-11-21T12:59:00;2.67;;;2.40;;
17510;SDS011;8873;48.818;9.422;2023-11-21T13:01:31;3.03;;;2.60;;
17510;SDS011;8873;48.818;9.422;2023-11-21T13:04:04;2.30;;;2.10;;
17510;SDS011;8873;48.818;9.422;2023-11-21T13:06:37;2.33;;;2.22;;
17510;SDS011;8873;48.818;9.422;2023-11-21T13:09:09;5.95;;;3.10;;
17510;SDS011;8873;48.818;9.422;2023-11-21T13:11:40;2.40;;;2.20;;
17510;SDS011;8873;48.818;9.422;2023-11-21T13:14:09;1.92;;;1.83;;
17510;SDS011;8873;48.818;9.422;2023-11-21T13:16:38;2.78;;;1.58;;
17510;SDS011;8873;48.818;9.422;2023-11-21T13:19:12;1.80;;;1.80;;
17510;SDS011;8873;48.818;9.422;2023-11-21T13:21:40;2.20;;;2.10;;
17510;SDS011;8873;48.818;9.422;2023-11-21T13:24:08;2.25;;;2.15;;
17510;SDS011;8873;48.818;9.422;2023-11-21T13:26:37;1.67;;;1.58;;
17510;SDS011;8873;48.818;9.422;2023-11-21T13:29:05;1.95;;;1.85;;
17510;SDS011;8873;48.818;9.422;2023-11-21T13:31:35;2.10;;;2.00;;
17510;SDS011;8873;48.818;9.422;2023-11-21T13:34:03;2.80;;;2.60;;
17510;SDS011;8873;48.818;9.422;2023-11-21T13:36:35;2.42;;;2.00;;
17510;SDS011;8873;48.818;9.422;2023-11-21T13:39:03;2.83;;;2.35;;
17510;SDS011;8873;48.818;9.422;2023-11-21T13:41:34;9.82;;;3.00;;
17510;SDS011;8873;48.818;9.422;2023-11-21T13:44:05;4.30;;;2.60;;
17510;SDS011;8873;48.818;9.422;2023-11-21T13:46:43;2.90;;;2.35;;
17510;SDS011;8873;48.818;9.422;2023-11-21T13:49:13;2.80;;;2.47;;
17510;SDS011;8873;48.818;9.422;2023-11-21T13:51:41;2.70;;;2.50;;
17510;SDS011;8873;48.818;9.422;2023-11-21T13:54:13;2.30;;;2.20;;
17510;SDS011;8873;48.818;9.422;2023-11-21T13:56:41;2.65;;;2.45;;
17510;SDS011;8873;48.818;9.422;2023-11-21T13:59:11;2.42;;;2.22;;
17510;SDS011;8873;48.818;9.422;2023-11-21T14:01:51;2.60;;;2.50;;
17510;SDS011;8873;48.818;9.422;2023-11-21T14:04:39;2.20;;;2.10;;
17510;SDS011;8873;48.818;9.422;2023-11-21T14:07:21;2.42;;;2.33;;
17510;SDS011;8873;48.818;9.422;2023-11-21T14:09:58;2.83;;;2.63;;
17510;SDS011;8873;48.818;9.422;2023-11-21T14:12:26;2.63;;;2.38;;
17510;SDS011;8873;48.818;9.422;2023-11-21T14:15:04;3.05;;;2.33;;
17510;SDS011;8873;48.818;9.422;2023-11-21T14:17:38;2.40;;;2.20;;
17510;SDS011;8873;48.818;9.422;2023-11-21T14:20:08;2.13;;;2.00;;
17510;SDS011;8873;48.818;9.422;2023-11-21T14:22:44;2.00;;;1.90;;
17510;SDS011;8873;48.818;9.422;2023-11-21T14:25:18;3.03;;;2.30;;
17510;SDS011;8873;48.818;9.422;2023-11-21T14:27:49;2.10;;;2.00;;
17510;SDS011;8873;48.818;9.422;2023-11-21T14:30:17;1.85;;;1.75;;
17510;SDS011;8873;48.818;9.422;2023-11-21T14:32:48;1.77;;;1.73;;
17510;SDS011;8873;48.818;9.422;2023-11-21T14:35:17;2.88;;;1.75;;
17510;SDS011;8873;48.818;9.422;2023-11-21T14:37:46;2.20;;;2.10;;
17510;SDS011;8873;48.818;9.422;2023-11-21T14:40:13;3.13;;;2.45;;
17510;SDS011;8873;48.818;9.422;2023-11-21T14:42:44;2.47;;;2.28;;
17510;SDS011;8873;48.818;9.422;2023-11-21T14:45:13;4.45;;;2.70;;
17510;SDS011;8873;48.818;9.422;2023-11-21T14:47:46;2.38;;;2.25;;
17510;SDS011;8873;48.818;9.422;2023-11-21T14:50:31;2.10;;;2.00;;
17510;SDS011;8873;48.818;9.422;2023-11-21T14:53:35;2.10;;;1.98;;
17510;SDS011;8873;48.818;9.422;2023-11-21T14:56:10;2.00;;;1.90;;
17510;SDS011;8873;48.818;9.422;2023-11-21T14:58:44;1.88;;;1.77;;
17510;SDS011;8873;48.818;9.422;2023-11-21T15:01:12;3.25;;;1.98;;
17510;SDS011;8873;48.818;9.422;2023-11-21T15:03:47;2.55;;;1.90;;
17510;SDS011;8873;48.818;9.422;2023-11-21T15:06:20;2.70;;;2.30;;
17510;SDS011;8873;48.818;9.422;2023-11-21T15:08:53;2.78;;;2.53;;
17510;SDS011;8873;48.818;9.422;2023-11-21T15:11:35;2.97;;;2.22;;
17510;SDS011;8873;48.818;9.422;2023-11-21T15:14:06;2.60;;;2.40;;
17510;SDS011;8873;48.818;9.422;2023-11-21T15:16:36;2.30;;;2.13;;
17510;SDS011;8873;48.818;9.422;2023-11-21T15:19:07;2.80;;;2.60;;
17510;SDS011;8873;48.818;9.422;2023-11-21T15:21:37;2.63;;;2.22;;
17510;SDS011;8873;48.818;9.422;2023-11-21T15:24:05;2.30;;;2.20;;